sensor_id;sensor_type;location;lat;lon;timestamp;pressure;altitude;pressure_sealevel;temperature;humidity
55149;BME280;49539;48.160;11.530;2022-12-18T00:01:26;96813.03;;;-4.77;100.00
55149;BME280;49539;48.160;11.530;2022-12-18T00:03:52;96811.34;;;-4.72;100.00
55149;BME280;49539;48.160;11.530;2022-12-18T00:06:18;96803.47;;;-4.78;100.00
55149;BME280;49539;48.160;11.530;2022-12-18T00:08:44;96811.47;;;-4.91;100.00
55149;BME280;49539;48.160;11.530;2022-12-18T00:11:14;96802.44;;;-5.04;100.00
55149;BME280;49539;48.160;11.530;2022-12-18T00:13:39;96805.56;;;-4.88;100.00
55149;BME280;49539;48.160;11.530;2022-12-18T00:16:14;96797.28;;;-4.73;100.00
55149;BME280;49539;48.160;11.530;2022-12-18T00:18:41;96807.13;;;-4.51;100.00
55149;BME280;49539;48.160;11.530;2022-12-18T00:21:07;96802.72;;;-4.56;100.00
55149;BME280;49539;48.160;11.530;2022-12-18T00:23:33;96804.03;;;-4.67;100.00
55149;BME280;49539;48.160;11.530;2022-12-18T00:26:00;96804.59;;;-4.92;100.00
55149;BME280;49539;48.160;11.530;2022-12-18T00:28:25;96810.56;;;-4.73;100.00
55149;BME280;49539;48.160;11.530;2022-12-18T00:30:51;96818.41;;;-4.68;100.00
55149;BME280;49539;48.160;11.530;2022-12-18T00:33:23;96830.16;;;-4.83;100.00
55149;BME280;49539;48.160;11.530;2022-12-18T00:35:49;96833.41;;;-4.72;100.00
55149;BME280;49539;48.160;11.530;2022-12-18T00:38:14;96832.66;;;-5.00;100.00
55149;BME280;49539;48.160;11.530;2022-12-18T00:40:39;96835.38;;;-4.78;100.00
55149;BME280;49539;48.160;11.530;2022-12-18T00:43:05;96832.53;;;-4.95;100.00
55149;BME280;49539;48.160;11.530;2022-12-18T00:45:30;96843.88;;;-4.89;100.00
55149;BME280;49539;48.160;11.530;2022-12-18T00:47:56;96831.38;;;-5.03;100.00
55149;BME280;49539;48.160;11.530;2022-12-18T00:50:22;96839.75;;;-5.09;100.00
55149;BME280;49539;48.160;11.530;2022-12-18T00:52:47;96836.22;;;-5.05;100.00
55149;BME280;49539;48.160;11.530;2022-12-18T00:55:13;96837.78;;;-5.04;100.00
55149;BME280;49539;48.160;11.530;2022-12-18T00:57:39;96839.94;;;-4.92;100.00
55149;BME280;49539;48.160;11.530;2022-12-18T01:00:06;96834.50;;;-4.87;100.00
55149;BME280;49539;48.160;11.530;2022-12-18T01:02:32;96840.81;;;-4.96;100.00
55149;BME280;49539;48.160;11.530;2022-12-18T01:04:58;96845.63;;;-4.85;100.00
55149;BME280;49539;48.160;11.530;2022-12-18T01:07:23;96852.63;;;-4.89;100.00
55149;BME280;49539;48.160;11.530;2022-12-18T01:09:48;96852.00;;;-4.86;100.00
55149;BME280;49539;48.160;11.530;2022-12-18T01:12:14;96853.81;;;-4.81;100.00
55149;BME280;49539;48.160;11.530;2022-12-18T01:14:39;96856.63;;;-4.78;100.00
55149;BME280;49539;48.160;11.530;2022-12-18T01:17:05;96864.91;;;-4.79;100.00
55149;BME280;49539;48.160;11.530;2022-12-18T01:19:30;96868.94;;;-4.68;100.00
55149;BME280;49539;48.160;11.530;2022-12-18T01:21:55;96872.56;;;-4.64;100.00
55149;BME280;49539;48.160;11.530;2022-12-18T01:24:21;96877.50;;;-4.71;100.00
55149;BME280;49539;48.160;11.530;2022-12-18T01:26:46;96884.88;;;-4.68;100.00
55149;BME280;49539;48.160;11.530;2022-12-18T01:29:11;96892.00;;;-4.77;100.00
55149;BME280;49539;48.160;11.530;2022-12-18T01:31:36;96894.94;;;-4.79;100.00
55149;BME280;49539;48.160;11.530;2022-12-18T01:34:02;96897.69;;;-4.84;100.00
55149;BME280;49539;48.160;11.530;2022-12-18T01:36:32;96888.03;;;-4.66;100.00
55149;BME280;49539;48.160;11.530;2022-12-18T01:39:02;96896.78;;;-4.65;100.00
55149;BME280;49539;48.160;11.530;2022-12-18T01:41:28;96894.94;;;-4.65;100.00
55149;BME280;49539;48.160;11.530;2022-12-18T01:47:01;96894.84;;;-4.87;100.00
55149;BME280;49539;48.160;11.530;2022-12-18T01:49:26;96898.09;;;-4.77;100.00
55149;BME280;49539;48.160;11.530;2022-12-18T01:51:51;96895.94;;;-4.88;100.00
55149;BME280;49539;48.160;11.530;2022-12-18T01:54:17;96896.31;;;-4.95;100.00
55149;BME280;49539;48.160;11.530;2022-12-18T01:56:42;96895.53;;;-4.68;100.00
55149;BME280;49539;48.160;11.530;2022-12-18T01:59:07;96901.53;;;-4.90;100.00
55149;BME280;49539;48.160;11.530;2022-12-18T02:01:35;96903.13;;;-5.03;100.00
55149;BME280;49539;48.160;11.530;2022-12-18T02:06:47;96894.84;;;-4.87;100.00
55149;BME280;49539;48.160;11.530;2022-12-18T02:09:20;96891.31;;;-5.10;100.00
55149;BME280;49539;48.160;11.530;2022-12-18T02:11:57;96890.25;;;-5.09;100.00
55149;BME280;49539;48.160;11.530;2022-12-18T02:17:11;96875.28;;;-5.05;100.00
55149;BME280;49539;48.160;11.530;2022-12-18T02:27:29;96882.94;;;-4.76;100.00
55149;BME280;49539;48.160;11.530;2022-12-18T02:29:55;96880.88;;;-5.20;100.00
55149;BME280;49539;48.160;11.530;2022-12-18T02:32:27;96883.34;;;-4.96;100.00
55149;BME280;49539;48.160;11.530;2022-12-18T02:34:54;96880.50;;;-5.00;100.00
55149;BME280;49539;48.160;11.530;2022-12-18T02:37:21;96876.25;;;-5.01;100.00
55149;BME280;49539;48.160;11.530;2022-12-18T02:39:47;96874.50;;;-5.06;100.00
55149;BME280;49539;48.160;11.530;2022-12-18T02:42:13;96871.44;;;-5.13;100.00
55149;BME280;49539;48.160;11.530;2022-12-18T02:44:46;96876.25;;;-4.87;100.00
55149;BME280;49539;48.160;11.530;2022-12-18T02:47:12;96873.97;;;-4.80;100.00
55149;BME280;49539;48.160;11.530;2022-12-18T02:59:49;96884.22;;;-4.87;100.00
55149;BME280;49539;48.160;11.530;2022-12-18T03:02:42;96889.34;;;-4.77;100.00
55149;BME280;49539;48.160;11.530;2022-12-18T03:05:18;96877.81;;;-4.86;100.00
55149;BME280;49539;48.160;11.530;2022-12-18T03:07:47;96879.06;;;-4.70;100.00
55149;BME280;49539;48.160;11.530;2022-12-18T03:10:14;96864.53;;;-4.86;100.00
55149;BME280;49539;48.160;11.530;2022-12-18T03:12:45;96874.59;;;-4.97;100.00
55149;BME280;49539;48.160;11.530;2022-12-18T03:15:14;96868.28;;;-5.01;100.00
55149;BME280;49539;48.160;11.530;2022-12-18T03:17:42;96871.22;;;-5.03;100.00
55149;BME280;49539;48.160;11.530;2022-12-18T03:20:12;96863.34;;;-4.80;100.00
55149;BME280;49539;48.160;11.530;2022-12-18T03:22:41;96870.84;;;-4.96;100.00
55149;BME280;49539;48.160;11.530;2022-12-18T03:25:09;96876.16;;;-4.96;100.00
55149;BME280;49539;48.160;11.530;2022-12-18T03:27:36;96877.41;;;-4.80;100.00
55149;BME280;49539;48.160;11.530;2022-12-18T03:32:33;96874.16;;;-4.90;100.00
55149;BME280;49539;48.160;11.530;2022-12-18T03:35:02;96879.81;;;-5.06;100.00
55149;BME280;49539;48.160;11.530;2022-12-18T03:37:29;96881.16;;;-4.81;100.00
55149;BME280;49539;48.160;11.530;2022-12-18T03:39:54;96887.78;;;-5.06;100.00
55149;BME280;49539;48.160;11.530;2022-12-18T03:47:30;96886.75;;;-4.82;100.00
55149;BME280;49539;48.160;11.530;2022-12-18T03:52:27;96882.63;;;-4.75;100.00
55149;BME280;49539;48.160;11.530;2022-12-18T03:54:55;96872.69;;;-4.83;100.00
55149;BME280;49539;48.160;11.530;2022-12-18T03:57:24;96871.78;;;-4.78;100.00
55149;BME280;49539;48.160;11.530;2022-12-18T03:59:52;96882.34;;;-4.73;100.00
55149;BME280;49539;48.160;11.530;2022-12-18T04:02:19;96886.56;;;-4.72;100.00
55149;BME280;49539;48.160;11.530;2022-12-18T04:04:46;96886.75;;;-4.68;100.00
55149;BME280;49539;48.160;11.530;2022-12-18T04:07:12;96885.19;;;-4.83;100.00
55149;BME280;49539;48.160;11.530;2022-12-18T04:09:38;96884.03;;;-4.77;100.00
55149;BME280;49539;48.160;11.530;2022-12-18T04:12:04;96881.09;;;-4.89;100.00
55149;BME280;49539;48.160;11.530;2022-12-18T04:14:30;96880.19;;;-4.85;100.00
55149;BME280;49539;48.160;11.530;2022-12-18T04:16:55;96878.13;;;-4.88;100.00
55149;BME280;49539;48.160;11.530;2022-12-18T04:19:20;96888.72;;;-4.74;100.00
55149;BME280;49539;48.160;11.530;2022-12-18T04:21:46;96891.69;;;-4.76;100.00
55149;BME280;49539;48.160;11.530;2022-12-18T04:24:11;96877.69;;;-4.67;100.00
55149;BME280;49539;48.160;11.530;2022-12-18T04:26:36;96881.66;;;-4.65;100.00
55149;BME280;49539;48.160;11.530;2022-12-18T04:29:03;96887.66;;;-4.87;100.00
55149;BME280;49539;48.160;11.530;2022-12-18T04:31:32;96888.72;;;-4.74;100.00
55149;BME280;49539;48.160;11.530;2022-12-18T04:33:57;96899.66;;;-4.76;100.00
55149;BME280;49539;48.160;11.530;2022-12-18T04:36:22;96898.69;;;-4.80;100.00
55149;BME280;49539;48.160;11.530;2022-12-18T04:38:47;96895.75;;;-4.92;100.00
55149;BME280;49539;48.160;11.530;2022-12-18T04:41:13;96881.66;;;-4.79;100.00
55149;BME280;49539;48.160;11.530;2022-12-18T04:43:38;96889.13;;;-4.81;100.00
55149;BME280;49539;48.160;11.530;2022-12-18T04:46:04;96897.03;;;-5.17;100.00
55149;BME280;49539;48.160;11.530;2022-12-18T04:48:30;96904.09;;;-4.99;100.00
55149;BME280;49539;48.160;11.530;2022-12-18T04:50:55;96910.81;;;-5.01;100.00
55149;BME280;49539;48.160;11.530;2022-12-18T04:53:21;96914.84;;;-5.04;100.00
55149;BME280;49539;48.160;11.530;2022-12-18T04:55:46;96921.91;;;-4.99;100.00
55149;BME280;49539;48.160;11.530;2022-12-18T04:58:11;96920.03;;;-4.99;100.00
55149;BME280;49539;48.160;11.530;2022-12-18T05:00:36;96918.06;;;-4.65;100.00
55149;BME280;49539;48.160;11.530;2022-12-18T05:03:02;96916.59;;;-4.71;100.00
55149;BME280;49539;48.160;11.530;2022-12-18T05:05:27;96918.47;;;-4.72;100.00
55149;BME280;49539;48.160;11.530;2022-12-18T05:07:52;96914.13;;;-4.82;100.00
55149;BME280;49539;48.160;11.530;2022-12-18T05:10:18;96917.00;;;-5.06;100.00
55149;BME280;49539;48.160;11.530;2022-12-18T05:12:43;96922.41;;;-4.83;100.00
55149;BME280;49539;48.160;11.530;2022-12-18T05:15:24;96931.94;;;-4.82;100.00
55149;BME280;49539;48.160;11.530;2022-12-18T05:17:49;96927.72;;;-4.69;100.00
55149;BME280;49539;48.160;11.530;2022-12-18T05:20:14;96923.19;;;-4.55;100.00
55149;BME280;49539;48.160;11.530;2022-12-18T05:22:40;96927.59;;;-4.51;100.00
55149;BME280;49539;48.160;11.530;2022-12-18T05:25:05;96922.19;;;-4.59;100.00
55149;BME280;49539;48.160;11.530;2022-12-18T05:27:30;96923.59;;;-5.03;100.00
55149;BME280;49539;48.160;11.530;2022-12-18T05:29:57;96927.53;;;-4.87;100.00
55149;BME280;49539;48.160;11.530;2022-12-18T05:32:23;96937.88;;;-4.71;100.00
55149;BME280;49539;48.160;11.530;2022-12-18T05:34:48;96931.66;;;-4.67;100.00
55149;BME280;49539;48.160;11.530;2022-12-18T05:37:13;96936.56;;;-4.74;100.00
55149;BME280;49539;48.160;11.530;2022-12-18T05:39:38;96937.75;;;-4.66;100.00
55149;BME280;49539;48.160;11.530;2022-12-18T05:42:04;96944.84;;;-4.76;100.00
55149;BME280;49539;48.160;11.530;2022-12-18T05:44:29;96942.50;;;-4.77;100.00
55149;BME280;49539;48.160;11.530;2022-12-18T05:46:54;96941.00;;;-4.83;100.00
55149;BME280;49539;48.160;11.530;2022-12-18T05:49:20;96933.16;;;-4.88;100.00
55149;BME280;49539;48.160;11.530;2022-12-18T05:51:45;96941.59;;;-4.59;100.00
55149;BME280;49539;48.160;11.530;2022-12-18T05:54:11;96943.47;;;-4.59;100.00
55149;BME280;49539;48.160;11.530;2022-12-18T05:56:36;96945.66;;;-4.89;100.00
55149;BME280;49539;48.160;11.530;2022-12-18T05:59:01;96954.19;;;-4.78;100.00
55149;BME280;49539;48.160;11.530;2022-12-18T06:01:27;96949.00;;;-4.83;100.00
55149;BME280;49539;48.160;11.530;2022-12-18T06:03:52;96942.59;;;-5.10;100.00
55149;BME280;49539;48.160;11.530;2022-12-18T06:06:22;96957.03;;;-5.16;100.00
55149;BME280;49539;48.160;11.530;2022-12-18T06:08:48;96946.25;;;-5.06;100.00
55149;BME280;49539;48.160;11.530;2022-12-18T06:11:15;96943.88;;;-4.93;100.00
55149;BME280;49539;48.160;11.530;2022-12-18T06:13:41;96955.78;;;-4.77;100.00
55149;BME280;49539;48.160;11.530;2022-12-18T06:16:07;96946.84;;;-4.81;100.00
55149;BME280;49539;48.160;11.530;2022-12-18T06:18:33;96947.31;;;-4.93;100.00
55149;BME280;49539;48.160;11.530;2022-12-18T06:20:59;96945.56;;;-4.84;100.00
55149;BME280;49539;48.160;11.530;2022-12-18T06:23:25;96945.94;;;-4.77;100.00
55149;BME280;49539;48.160;11.530;2022-12-18T06:25:50;96953.22;;;-4.96;100.00
55149;BME280;49539;48.160;11.530;2022-12-18T06:28:16;96955.88;;;-4.82;100.00
55149;BME280;49539;48.160;11.530;2022-12-18T06:30:47;96957.03;;;-5.02;100.00
55149;BME280;49539;48.160;11.530;2022-12-18T06:33:13;96955.28;;;-4.93;100.00
55149;BME280;49539;48.160;11.530;2022-12-18T06:35:39;96962.78;;;-4.67;100.00
55149;BME280;49539;48.160;11.530;2022-12-18T06:38:04;96977.94;;;-4.68;100.00
55149;BME280;49539;48.160;11.530;2022-12-18T06:40:30;96975.50;;;-4.64;100.00
55149;BME280;49539;48.160;11.530;2022-12-18T06:42:55;96975.78;;;-4.80;100.00
55149;BME280;49539;48.160;11.530;2022-12-18T06:45:20;96981.38;;;-4.95;100.00
55149;BME280;49539;48.160;11.530;2022-12-18T06:47:46;96976.88;;;-4.81;100.00
55149;BME280;49539;48.160;11.530;2022-12-18T06:50:11;96977.44;;;-4.70;100.00
55149;BME280;49539;48.160;11.530;2022-12-18T06:52:37;96986.59;;;-4.76;100.00
55149;BME280;49539;48.160;11.530;2022-12-18T06:55:02;96975.38;;;-4.59;100.00
55149;BME280;49539;48.160;11.530;2022-12-18T06:57:28;96989.47;;;-4.72;100.00
55149;BME280;49539;48.160;11.530;2022-12-18T06:59:53;96996.47;;;-4.77;100.00
55149;BME280;49539;48.160;11.530;2022-12-18T07:02:18;96994.88;;;-4.64;100.00
55149;BME280;49539;48.160;11.530;2022-12-18T07:04:44;96998.44;;;-4.68;100.00
55149;BME280;49539;48.160;11.530;2022-12-18T07:07:09;97002.75;;;-4.59;100.00
55149;BME280;49539;48.160;11.530;2022-12-18T07:09:34;97010.44;;;-4.57;100.00
55149;BME280;49539;48.160;11.530;2022-12-18T07:12:00;97011.13;;;-4.65;100.00
55149;BME280;49539;48.160;11.530;2022-12-18T07:14:25;97002.84;;;-4.64;100.00
55149;BME280;49539;48.160;11.530;2022-12-18T07:16:51;97010.84;;;-4.64;100.00
55149;BME280;49539;48.160;11.530;2022-12-18T07:19:16;97016.63;;;-4.76;100.00
55149;BME280;49539;48.160;11.530;2022-12-18T07:21:41;97013.00;;;-4.80;100.00
55149;BME280;49539;48.160;11.530;2022-12-18T07:24:06;97020.56;;;-4.87;100.00
55149;BME280;49539;48.160;11.530;2022-12-18T07:26:32;97028.03;;;-4.89;100.00
55149;BME280;49539;48.160;11.530;2022-12-18T07:28:57;97026.47;;;-4.76;100.00
55149;BME280;49539;48.160;11.530;2022-12-18T07:31:23;97025.97;;;-4.78;100.00
55149;BME280;49539;48.160;11.530;2022-12-18T07:33:49;97025.88;;;-4.87;100.00
55149;BME280;49539;48.160;11.530;2022-12-18T07:36:15;97017.16;;;-5.20;100.00
55149;BME280;49539;48.160;11.530;2022-12-18T07:38:40;97014.56;;;-5.25;100.00
55149;BME280;49539;48.160;11.530;2022-12-18T07:41:07;97011.19;;;-4.98;100.00
55149;BME280;49539;48.160;11.530;2022-12-18T07:43:33;97009.03;;;-4.82;100.00
55149;BME280;49539;48.160;11.530;2022-12-18T07:45:58;97018.59;;;-4.81;100.00
55149;BME280;49539;48.160;11.530;2022-12-18T07:48:24;97016.53;;;-4.84;100.00
55149;BME280;49539;48.160;11.530;2022-12-18T07:50:49;97011.91;;;-4.79;100.00
55149;BME280;49539;48.160;11.530;2022-12-18T07:53:14;97017.09;;;-4.87;100.00
55149;BME280;49539;48.160;11.530;2022-12-18T07:55:40;97018.56;;;-4.95;100.00
55149;BME280;49539;48.160;11.530;2022-12-18T07:58:06;97018.50;;;-4.76;100.00
55149;BME280;49539;48.160;11.530;2022-12-18T08:00:31;97020.88;;;-4.61;100.00
55149;BME280;49539;48.160;11.530;2022-12-18T08:02:57;97019.88;;;-4.92;100.00
55149;BME280;49539;48.160;11.530;2022-12-18T08:05:22;97021.53;;;-4.96;100.00
55149;BME280;49539;48.160;11.530;2022-12-18T08:07:47;97029.09;;;-4.90;100.00
55149;BME280;49539;48.160;11.530;2022-12-18T08:10:12;97031.28;;;-4.78;100.00
55149;BME280;49539;48.160;11.530;2022-12-18T08:12:38;97038.16;;;-4.91;100.00
55149;BME280;49539;48.160;11.530;2022-12-18T08:15:03;97039.38;;;-4.83;100.00
55149;BME280;49539;48.160;11.530;2022-12-18T08:17:29;97040.97;;;-4.68;100.00
55149;BME280;49539;48.160;11.530;2022-12-18T08:19:54;97041.53;;;-4.85;100.00
55149;BME280;49539;48.160;11.530;2022-12-18T08:22:20;97045.09;;;-4.62;100.00
55149;BME280;49539;48.160;11.530;2022-12-18T08:24:45;97042.16;;;-4.61;100.00
55149;BME280;49539;48.160;11.530;2022-12-18T08:27:10;97039.56;;;-4.66;100.00
55149;BME280;49539;48.160;11.530;2022-12-18T08:29:35;97046.66;;;-4.61;100.00
55149;BME280;49539;48.160;11.530;2022-12-18T08:32:01;97044.41;;;-4.54;100.00
55149;BME280;49539;48.160;11.530;2022-12-18T08:34:26;97041.56;;;-4.44;100.00
55149;BME280;49539;48.160;11.530;2022-12-18T08:36:51;97045.50;;;-4.28;100.00
55149;BME280;49539;48.160;11.530;2022-12-18T08:39:17;97049.94;;;-4.23;100.00
55149;BME280;49539;48.160;11.530;2022-12-18T08:41:42;97044.13;;;-4.25;100.00
55149;BME280;49539;48.160;11.530;2022-12-18T08:44:07;97045.22;;;-4.40;100.00
55149;BME280;49539;48.160;11.530;2022-12-18T08:46:51;97045.41;;;-4.22;100.00
55149;BME280;49539;48.160;11.530;2022-12-18T08:49:17;97049.72;;;-4.40;100.00
55149;BME280;49539;48.160;11.530;2022-12-18T08:51:42;97056.22;;;-4.33;100.00
55149;BME280;49539;48.160;11.530;2022-12-18T08:54:08;97053.09;;;-4.35;100.00
55149;BME280;49539;48.160;11.530;2022-12-18T08:56:34;97047.38;;;-4.42;100.00
55149;BME280;49539;48.160;11.530;2022-12-18T08:59:00;97043.34;;;-4.39;100.00
55149;BME280;49539;48.160;11.530;2022-12-18T09:01:25;97057.13;;;-4.37;100.00
55149;BME280;49539;48.160;11.530;2022-12-18T09:03:50;97062.84;;;-4.30;100.00
55149;BME280;49539;48.160;11.530;2022-12-18T09:06:17;97058.78;;;-4.41;100.00
55149;BME280;49539;48.160;11.530;2022-12-18T09:08:43;97060.97;;;-4.43;100.00
55149;BME280;49539;48.160;11.530;2022-12-18T09:11:12;97062.72;;;-4.53;100.00
55149;BME280;49539;48.160;11.530;2022-12-18T09:13:38;97065.78;;;-4.45;100.00
55149;BME280;49539;48.160;11.530;2022-12-18T09:16:03;97071.03;;;-4.27;100.00
55149;BME280;49539;48.160;11.530;2022-12-18T09:18:29;97062.84;;;-4.30;100.00
55149;BME280;49539;48.160;11.530;2022-12-18T09:20:54;97064.44;;;-4.15;100.00
55149;BME280;49539;48.160;11.530;2022-12-18T09:23:20;97057.72;;;-4.27;100.00
55149;BME280;49539;48.160;11.530;2022-12-18T09:25:46;97058.28;;;-4.02;100.00
55149;BME280;49539;48.160;11.530;2022-12-18T09:28:12;97049.22;;;-4.01;100.00
55149;BME280;49539;48.160;11.530;2022-12-18T09:30:38;97054.34;;;-4.32;100.00
55149;BME280;49539;48.160;11.530;2022-12-18T09:33:07;97053.00;;;-4.43;100.00
55149;BME280;49539;48.160;11.530;2022-12-18T09:35:35;97049.84;;;-4.59;100.00
55149;BME280;49539;48.160;11.530;2022-12-18T09:38:00;97057.34;;;-4.47;100.00
55149;BME280;49539;48.160;11.530;2022-12-18T09:40:26;97050.03;;;-4.28;100.00
55149;BME280;49539;48.160;11.530;2022-12-18T09:43:00;97053.78;;;-4.43;100.00
55149;BME280;49539;48.160;11.530;2022-12-18T09:45:27;97049.16;;;-4.65;100.00
55149;BME280;49539;48.160;11.530;2022-12-18T09:47:53;97052.50;;;-4.73;100.00
55149;BME280;49539;48.160;11.530;2022-12-18T09:53:19;97050.03;;;-4.56;100.00
55149;BME280;49539;48.160;11.530;2022-12-18T09:55:46;97049.25;;;-4.42;100.00
55149;BME280;49539;48.160;11.530;2022-12-18T09:58:24;97047.66;;;-4.30;100.00
55149;BME280;49539;48.160;11.530;2022-12-18T10:00:52;97044.50;;;-4.45;100.00
55149;BME280;49539;48.160;11.530;2022-12-18T10:03:18;97044.03;;;-4.47;100.00
55149;BME280;49539;48.160;11.530;2022-12-18T10:10:45;97036.63;;;-4.23;100.00
55149;BME280;49539;48.160;11.530;2022-12-18T10:15:42;97026.91;;;-3.91;100.00
55149;BME280;49539;48.160;11.530;2022-12-18T10:20:43;97025.50;;;-3.75;100.00
55149;BME280;49539;48.160;11.530;2022-12-18T10:23:32;97023.69;;;-4.16;100.00
55149;BME280;49539;48.160;11.530;2022-12-18T10:26:03;97021.66;;;-4.33;100.00
55149;BME280;49539;48.160;11.530;2022-12-18T10:28:30;97011.09;;;-4.24;100.00
55149;BME280;49539;48.160;11.530;2022-12-18T10:30:56;97009.41;;;-4.20;100.00
55149;BME280;49539;48.160;11.530;2022-12-18T10:33:23;97001.00;;;-4.00;100.00
55149;BME280;49539;48.160;11.530;2022-12-18T10:35:51;97001.44;;;-4.06;100.00
55149;BME280;49539;48.160;11.530;2022-12-18T10:41:04;96991.25;;;-4.04;100.00
55149;BME280;49539;48.160;11.530;2022-12-18T10:48:35;97000.22;;;-4.00;100.00
55149;BME280;49539;48.160;11.530;2022-12-18T10:51:01;97005.69;;;-3.83;100.00
55149;BME280;49539;48.160;11.530;2022-12-18T10:53:28;97000.81;;;-3.67;100.00
55149;BME280;49539;48.160;11.530;2022-12-18T10:55:55;96995.00;;;-3.69;100.00
55149;BME280;49539;48.160;11.530;2022-12-18T10:58:27;97000.25;;;-4.14;100.00
55149;BME280;49539;48.160;11.530;2022-12-18T11:06:03;97013.47;;;-3.50;100.00
55149;BME280;49539;48.160;11.530;2022-12-18T11:08:29;97015.16;;;-3.54;100.00
55149;BME280;49539;48.160;11.530;2022-12-18T11:10:54;97018.84;;;-3.64;100.00
55149;BME280;49539;48.160;11.530;2022-12-18T11:13:20;97021.31;;;-3.54;100.00
55149;BME280;49539;48.160;11.530;2022-12-18T11:15:46;97015.41;;;-3.42;100.00
55149;BME280;49539;48.160;11.530;2022-12-18T11:21:07;97019.88;;;-3.51;100.00
55149;BME280;49539;48.160;11.530;2022-12-18T11:23:34;97021.75;;;-3.74;100.00
55149;BME280;49539;48.160;11.530;2022-12-18T11:26:03;97020.53;;;-3.68;100.00
55149;BME280;49539;48.160;11.530;2022-12-18T11:33:41;97019.50;;;-3.81;100.00
55149;BME280;49539;48.160;11.530;2022-12-18T11:36:08;97016.53;;;-3.79;100.00
55149;BME280;49539;48.160;11.530;2022-12-18T11:38:36;97008.91;;;-3.72;100.00
55149;BME280;49539;48.160;11.530;2022-12-18T11:41:04;97008.66;;;-3.84;100.00
55149;BME280;49539;48.160;11.530;2022-12-18T11:43:35;96995.53;;;-3.58;100.00
55149;BME280;49539;48.160;11.530;2022-12-18T11:46:08;96998.53;;;-3.60;100.00
55149;BME280;49539;48.160;11.530;2022-12-18T11:48:38;96996.72;;;-3.87;100.00
55149;BME280;49539;48.160;11.530;2022-12-18T11:51:14;96992.38;;;-4.19;100.00
55149;BME280;49539;48.160;11.530;2022-12-18T11:53:43;96992.53;;;-4.02;100.00
55149;BME280;49539;48.160;11.530;2022-12-18T12:07:12;96984.47;;;-4.10;100.00
55149;BME280;49539;48.160;11.530;2022-12-18T12:14:45;96985.97;;;-3.82;100.00
55149;BME280;49539;48.160;11.530;2022-12-18T12:19:56;96986.81;;;-3.50;100.00
55149;BME280;49539;48.160;11.530;2022-12-18T12:22:27;96978.69;;;-3.54;100.00
55149;BME280;49539;48.160;11.530;2022-12-18T12:25:08;96976.25;;;-3.41;100.00
55149;BME280;49539;48.160;11.530;2022-12-18T12:30:25;96961.72;;;-3.58;100.00
55149;BME280;49539;48.160;11.530;2022-12-18T12:35:42;96968.50;;;-3.74;100.00
55149;BME280;49539;48.160;11.530;2022-12-18T12:40:54;96966.69;;;-4.23;100.00
55149;BME280;49539;48.160;11.530;2022-12-18T12:45:51;96971.31;;;-3.93;100.00
55149;BME280;49539;48.160;11.530;2022-12-18T12:48:28;96968.97;;;-3.94;100.00
55149;BME280;49539;48.160;11.530;2022-12-18T12:50:56;96966.13;;;-3.98;100.00
55149;BME280;49539;48.160;11.530;2022-12-18T12:53:26;96962.75;;;-3.90;100.00
55149;BME280;49539;48.160;11.530;2022-12-18T12:55:53;96955.00;;;-3.78;100.00
55149;BME280;49539;48.160;11.530;2022-12-18T13:03:46;96977.75;;;-4.08;100.00
55149;BME280;49539;48.160;11.530;2022-12-18T13:08:53;96974.16;;;-3.89;100.00
55149;BME280;49539;48.160;11.530;2022-12-18T13:14:22;96978.31;;;-3.61;100.00
55149;BME280;49539;48.160;11.530;2022-12-18T13:16:48;96974.19;;;-3.44;100.00
55149;BME280;49539;48.160;11.530;2022-12-18T13:19:22;96980.78;;;-3.64;100.00
55149;BME280;49539;48.160;11.530;2022-12-18T13:21:54;96993.41;;;-3.92;100.00
55149;BME280;49539;48.160;11.530;2022-12-18T13:24:22;96992.56;;;-3.79;100.00
55149;BME280;49539;48.160;11.530;2022-12-18T13:26:48;96986.78;;;-3.59;100.00
55149;BME280;49539;48.160;11.530;2022-12-18T13:29:22;96977.69;;;-3.80;100.00
55149;BME280;49539;48.160;11.530;2022-12-18T13:32:00;96985.91;;;-3.90;100.00
55149;BME280;49539;48.160;11.530;2022-12-18T13:34:26;96977.28;;;-3.73;100.00
55149;BME280;49539;48.160;11.530;2022-12-18T13:36:53;96979.50;;;-3.67;100.00
55149;BME280;49539;48.160;11.530;2022-12-18T13:41:44;96981.94;;;-4.15;100.00
55149;BME280;49539;48.160;11.530;2022-12-18T13:46:54;96982.50;;;-4.05;100.00
55149;BME280;49539;48.160;11.530;2022-12-18T13:49:41;96977.81;;;-3.85;100.00
55149;BME280;49539;48.160;11.530;2022-12-18T13:52:16;96978.59;;;-3.85;100.00
55149;BME280;49539;48.160;11.530;2022-12-18T13:54:42;96979.19;;;-3.88;100.00
55149;BME280;49539;48.160;11.530;2022-12-18T13:59:54;96965.78;;;-4.19;100.00
55149;BME280;49539;48.160;11.530;2022-12-18T14:02:23;96966.13;;;-4.76;100.00
55149;BME280;49539;48.160;11.530;2022-12-18T14:04:49;96964.63;;;-4.54;100.00
55149;BME280;49539;48.160;11.530;2022-12-18T14:07:18;96970.94;;;-4.50;100.00
55149;BME280;49539;48.160;11.530;2022-12-18T14:10:02;96971.44;;;-4.48;100.00
55149;BME280;49539;48.160;11.530;2022-12-18T14:12:29;96969.53;;;-4.34;100.00
55149;BME280;49539;48.160;11.530;2022-12-18T14:15:20;96981.09;;;-4.66;100.00
55149;BME280;49539;48.160;11.530;2022-12-18T14:17:49;96974.78;;;-4.56;100.00
55149;BME280;49539;48.160;11.530;2022-12-18T14:20:15;96981.66;;;-4.41;100.00
55149;BME280;49539;48.160;11.530;2022-12-18T14:22:45;96972.59;;;-4.40;100.00
55149;BME280;49539;48.160;11.530;2022-12-18T14:27:37;96987.69;;;-4.36;100.00
55149;BME280;49539;48.160;11.530;2022-12-18T14:30:18;96993.88;;;-4.40;100.00
55149;BME280;49539;48.160;11.530;2022-12-18T14:33:01;96996.66;;;-4.32;100.00
55149;BME280;49539;48.160;11.530;2022-12-18T14:35:27;96984.03;;;-4.40;100.00
55149;BME280;49539;48.160;11.530;2022-12-18T14:37:52;96982.06;;;-4.34;100.00
55149;BME280;49539;48.160;11.530;2022-12-18T14:40:17;96978.59;;;-4.35;100.00
55149;BME280;49539;48.160;11.530;2022-12-18T14:42:43;96980.50;;;-4.35;100.00